< < Back
Terminal Aerodrome Forecast


Current Version              Previous Versions:   1  2  3  4  5  6  7  8  9  

Terminal Aerodrome Forecast

992
FTUS42 KGSP 031733
TAFAND
TAF
KAND 031733Z 0318/0418 07006KT P6SM FEW060 BKN250
     FM032000 31003KT P6SM VCTS SCT050CB
     FM040100 01003KT P6SM SCT060 BKN250
     FM040800 01003KT P6SM SCT070=



Latest METAR

853
SAUS70 KWBC 031900
MTRAND
METAR KAND 031856Z AUTO VRB03KT 10SM CLR 32/19 A2996 RMK AO2 SLP134
T03170194


USA.gov is the U.S. government's official web portal to all federal, state and local government web resources and services.